sensor_id;sensor_type;location;lat;lon;timestamp;pressure;altitude;pressure_sealevel;temperature;humidity
17054;BME280;8643;48.824;11.422;2023-05-19T00:01:36;97480.81;;;10.48;100.00
17054;BME280;8643;48.824;11.422;2023-05-19T00:04:05;97474.38;;;10.43;100.00
17054;BME280;8643;48.824;11.422;2023-05-19T00:06:35;97474.38;;;10.43;100.00
17054;BME280;8643;48.824;11.422;2023-05-19T00:09:06;97470.50;;;10.44;100.00
17054;BME280;8643;48.824;11.422;2023-05-19T00:11:38;97466.00;;;10.40;100.00
17054;BME280;8643;48.824;11.422;2023-05-19T00:14:08;97466.94;;;10.35;100.00
17054;BME280;8643;48.824;11.422;2023-05-19T00:16:38;97467.25;;;10.34;100.00
17054;BME280;8643;48.824;11.422;2023-05-19T00:19:08;97459.38;;;10.32;100.00
17054;BME280;8643;48.824;11.422;2023-05-19T00:21:37;97455.91;;;10.26;100.00
17054;BME280;8643;48.824;11.422;2023-05-19T00:24:07;97468.00;;;10.25;100.00
17054;BME280;8643;48.824;11.422;2023-05-19T00:26:37;97455.09;;;10.17;100.00
17054;BME280;8643;48.824;11.422;2023-05-19T00:29:06;97465.41;;;10.20;100.00
17054;BME280;8643;48.824;11.422;2023-05-19T00:31:35;97454.94;;;10.14;100.00
17054;BME280;8643;48.824;11.422;2023-05-19T00:34:03;97454.28;;;10.17;100.00
17054;BME280;8643;48.824;11.422;2023-05-19T00:36:33;97450.13;;;10.19;100.00
17054;BME280;8643;48.824;11.422;2023-05-19T00:39:02;97459.75;;;10.17;100.00
17054;BME280;8643;48.824;11.422;2023-05-19T00:41:30;97460.13;;;10.24;100.00
17054;BME280;8643;48.824;11.422;2023-05-19T00:44:00;97452.69;;;10.16;100.00
17054;BME280;8643;48.824;11.422;2023-05-19T00:46:29;97456.69;;;10.18;100.00
17054;BME280;8643;48.824;11.422;2023-05-19T00:48:59;97455.28;;;10.21;100.00
17054;BME280;8643;48.824;11.422;2023-05-19T00:51:28;97450.91;;;10.20;100.00
17054;BME280;8643;48.824;11.422;2023-05-19T00:53:57;97450.91;;;10.20;100.00
17054;BME280;8643;48.824;11.422;2023-05-19T00:56:26;97442.69;;;10.20;100.00
17054;BME280;8643;48.824;11.422;2023-05-19T00:58:56;97442.84;;;10.15;100.00
17054;BME280;8643;48.824;11.422;2023-05-19T01:01:26;97443.63;;;10.06;100.00
17054;BME280;8643;48.824;11.422;2023-05-19T01:03:55;97435.41;;;10.06;100.00
17054;BME280;8643;48.824;11.422;2023-05-19T01:06:25;97438.53;;;10.14;100.00
17054;BME280;8643;48.824;11.422;2023-05-19T01:08:56;97434.94;;;10.13;100.00
17054;BME280;8643;48.824;11.422;2023-05-19T01:11:24;97429.63;;;10.08;100.00
17054;BME280;8643;48.824;11.422;2023-05-19T01:13:53;97429.94;;;10.06;100.00
17054;BME280;8643;48.824;11.422;2023-05-19T01:16:28;97428.47;;;10.00;100.00
17054;BME280;8643;48.824;11.422;2023-05-19T01:19:03;97423.50;;;10.02;100.00
17054;BME280;8643;48.824;11.422;2023-05-19T01:22:05;97430.72;;;9.98;100.00
17054;BME280;8643;48.824;11.422;2023-05-19T01:27:46;97432.31;;;9.59;100.00
17054;BME280;8643;48.824;11.422;2023-05-19T01:30:27;97430.41;;;9.37;100.00
17054;BME280;8643;48.824;11.422;2023-05-19T01:32:59;97428.75;;;9.27;100.00
17054;BME280;8643;48.824;11.422;2023-05-19T01:35:29;97423.94;;;9.10;100.00
17054;BME280;8643;48.824;11.422;2023-05-19T01:37:59;97426.03;;;8.91;100.00
17054;BME280;8643;48.824;11.422;2023-05-19T01:40:29;97427.63;;;8.69;100.00
17054;BME280;8643;48.824;11.422;2023-05-19T01:43:01;97425.75;;;8.56;100.00
17054;BME280;8643;48.824;11.422;2023-05-19T01:45:33;97427.88;;;8.45;100.00
17054;BME280;8643;48.824;11.422;2023-05-19T01:48:04;97415.53;;;8.34;100.00
17054;BME280;8643;48.824;11.422;2023-05-19T01:50:38;97417.88;;;8.26;100.00
17054;BME280;8643;48.824;11.422;2023-05-19T01:53:07;97416.75;;;8.27;100.00
17054;BME280;8643;48.824;11.422;2023-05-19T01:55:42;97429.59;;;8.27;100.00
17054;BME280;8643;48.824;11.422;2023-05-19T01:58:18;97425.66;;;8.19;100.00
17054;BME280;8643;48.824;11.422;2023-05-19T02:00:55;97422.53;;;8.12;100.00
17054;BME280;8643;48.824;11.422;2023-05-19T02:03:46;97422.22;;;8.00;100.00
17054;BME280;8643;48.824;11.422;2023-05-19T02:06:26;97420.72;;;7.94;100.00
17054;BME280;8643;48.824;11.422;2023-05-19T02:09:02;97415.88;;;7.91;100.00
17054;BME280;8643;48.824;11.422;2023-05-19T02:11:36;97423.34;;;7.85;100.00
17054;BME280;8643;48.824;11.422;2023-05-19T02:14:13;97421.72;;;7.70;100.00
17054;BME280;8643;48.824;11.422;2023-05-19T02:16:47;97415.84;;;7.63;100.00
17054;BME280;8643;48.824;11.422;2023-05-19T02:19:22;97421.66;;;7.56;100.00
17054;BME280;8643;48.824;11.422;2023-05-19T02:21:54;97428.34;;;7.50;100.00
17054;BME280;8643;48.824;11.422;2023-05-19T02:24:23;97418.94;;;7.42;100.00
17054;BME280;8643;48.824;11.422;2023-05-19T02:26:53;97422.56;;;7.38;100.00
17054;BME280;8643;48.824;11.422;2023-05-19T02:29:21;97420.94;;;7.37;100.00
17054;BME280;8643;48.824;11.422;2023-05-19T02:31:51;97426.41;;;7.37;100.00
17054;BME280;8643;48.824;11.422;2023-05-19T02:34:19;97419.53;;;7.39;100.00
17054;BME280;8643;48.824;11.422;2023-05-19T02:36:48;97419.13;;;7.32;100.00
17054;BME280;8643;48.824;11.422;2023-05-19T02:39:17;97419.03;;;7.37;100.00
17054;BME280;8643;48.824;11.422;2023-05-19T02:41:46;97420.84;;;7.42;100.00
17054;BME280;8643;48.824;11.422;2023-05-19T02:44:15;97413.00;;;7.54;100.00
17054;BME280;8643;48.824;11.422;2023-05-19T02:46:44;97410.00;;;7.69;100.00
17054;BME280;8643;48.824;11.422;2023-05-19T02:49:14;97412.31;;;7.76;100.00
17054;BME280;8643;48.824;11.422;2023-05-19T02:51:43;97416.28;;;7.84;100.00
17054;BME280;8643;48.824;11.422;2023-05-19T02:54:12;97401.63;;;7.94;100.00
17054;BME280;8643;48.824;11.422;2023-05-19T02:56:40;97405.84;;;8.00;100.00
17054;BME280;8643;48.824;11.422;2023-05-19T02:59:09;97408.19;;;8.06;100.00
17054;BME280;8643;48.824;11.422;2023-05-19T03:01:37;97404.34;;;8.07;100.00
17054;BME280;8643;48.824;11.422;2023-05-19T03:04:07;97402.94;;;8.10;100.00
17054;BME280;8643;48.824;11.422;2023-05-19T03:06:37;97390.50;;;8.18;100.00
17054;BME280;8643;48.824;11.422;2023-05-19T03:09:05;97392.59;;;8.21;100.00
17054;BME280;8643;48.824;11.422;2023-05-19T03:11:34;97392.00;;;8.24;100.00
17054;BME280;8643;48.824;11.422;2023-05-19T03:14:02;97392.09;;;8.33;100.00
17054;BME280;8643;48.824;11.422;2023-05-19T03:16:31;97398.44;;;8.42;100.00
17054;BME280;8643;48.824;11.422;2023-05-19T03:19:00;97388.88;;;8.44;100.00
17054;BME280;8643;48.824;11.422;2023-05-19T03:21:29;97389.69;;;8.45;100.00
17054;BME280;8643;48.824;11.422;2023-05-19T03:23:59;97388.75;;;8.50;100.00
17054;BME280;8643;48.824;11.422;2023-05-19T03:26:29;97390.69;;;8.49;100.00
17054;BME280;8643;48.824;11.422;2023-05-19T03:28:57;97397.44;;;8.52;100.00
17054;BME280;8643;48.824;11.422;2023-05-19T03:31:26;97402.09;;;8.51;100.00
17054;BME280;8643;48.824;11.422;2023-05-19T03:33:57;97399.06;;;8.53;100.00
17054;BME280;8643;48.824;11.422;2023-05-19T03:36:25;97402.16;;;8.60;100.00
17054;BME280;8643;48.824;11.422;2023-05-19T03:39:00;97403.38;;;8.68;100.00
17054;BME280;8643;48.824;11.422;2023-05-19T03:41:29;97405.09;;;8.63;100.00
17054;BME280;8643;48.824;11.422;2023-05-19T03:43:58;97397.53;;;8.60;100.00
17054;BME280;8643;48.824;11.422;2023-05-19T03:46:26;97402.94;;;8.74;100.00
17054;BME280;8643;48.824;11.422;2023-05-19T03:49:18;97394.56;;;8.71;100.00
17054;BME280;8643;48.824;11.422;2023-05-19T03:52:06;97400.03;;;8.71;100.00
17054;BME280;8643;48.824;11.422;2023-05-19T03:54:49;97402.03;;;8.79;100.00
17054;BME280;8643;48.824;11.422;2023-05-19T03:57:19;97400.69;;;8.76;100.00
17054;BME280;8643;48.824;11.422;2023-05-19T03:59:48;97399.78;;;8.81;100.00
17054;BME280;8643;48.824;11.422;2023-05-19T04:02:17;97399.88;;;8.90;100.00
17054;BME280;8643;48.824;11.422;2023-05-19T04:04:47;97401.41;;;8.82;100.00
17054;BME280;8643;48.824;11.422;2023-05-19T04:07:17;97404.50;;;8.89;100.00
17054;BME280;8643;48.824;11.422;2023-05-19T04:09:46;97407.97;;;8.81;100.00
17054;BME280;8643;48.824;11.422;2023-05-19T04:12:16;97407.06;;;8.86;100.00
17054;BME280;8643;48.824;11.422;2023-05-19T04:14:44;97393.09;;;8.87;100.00
17054;BME280;8643;48.824;11.422;2023-05-19T04:17:13;97391.47;;;8.86;100.00
17054;BME280;8643;48.824;11.422;2023-05-19T04:19:42;97396.44;;;8.84;100.00
17054;BME280;8643;48.824;11.422;2023-05-19T04:22:11;97388.38;;;8.79;100.00
17054;BME280;8643;48.824;11.422;2023-05-19T04:24:41;97383.47;;;8.90;100.00
17054;BME280;8643;48.824;11.422;2023-05-19T04:27:10;97394.91;;;8.92;100.00
17054;BME280;8643;48.824;11.422;2023-05-19T04:29:41;97404.06;;;8.96;100.00
17054;BME280;8643;48.824;11.422;2023-05-19T04:32:10;97398.91;;;8.94;100.00
17054;BME280;8643;48.824;11.422;2023-05-19T04:34:43;97406.38;;;9.03;100.00
17054;BME280;8643;48.824;11.422;2023-05-19T04:37:18;97405.31;;;9.12;100.00
17054;BME280;8643;48.824;11.422;2023-05-19T04:39:46;97403.91;;;9.15;100.00
17054;BME280;8643;48.824;11.422;2023-05-19T04:42:15;97403.31;;;9.04;100.00
17054;BME280;8643;48.824;11.422;2023-05-19T04:44:46;97397.94;;;9.13;100.00
17054;BME280;8643;48.824;11.422;2023-05-19T04:47:19;97403.59;;;9.16;100.00
17054;BME280;8643;48.824;11.422;2023-05-19T04:49:48;97392.22;;;9.23;100.00
17054;BME280;8643;48.824;11.422;2023-05-19T04:52:22;97403.75;;;9.43;100.00
17054;BME280;8643;48.824;11.422;2023-05-19T04:54:51;97398.91;;;9.40;100.00
17054;BME280;8643;48.824;11.422;2023-05-19T04:57:20;97405.38;;;9.44;100.00
17054;BME280;8643;48.824;11.422;2023-05-19T04:59:50;97401.50;;;9.45;100.00
17054;BME280;8643;48.824;11.422;2023-05-19T05:02:19;97398.47;;;9.46;100.00
17054;BME280;8643;48.824;11.422;2023-05-19T05:04:48;97400.97;;;9.65;100.00
17054;BME280;8643;48.824;11.422;2023-05-19T05:07:17;97384.41;;;9.62;100.00
17054;BME280;8643;48.824;11.422;2023-05-19T05:09:46;97384.91;;;9.72;100.00
17054;BME280;8643;48.824;11.422;2023-05-19T05:12:16;97394.91;;;9.77;100.00
17054;BME280;8643;48.824;11.422;2023-05-19T05:14:47;97391.09;;;9.87;100.00
17054;BME280;8643;48.824;11.422;2023-05-19T05:17:19;97388.19;;;9.83;100.00
17054;BME280;8643;48.824;11.422;2023-05-19T05:19:48;97387.84;;;9.76;100.00
17054;BME280;8643;48.824;11.422;2023-05-19T05:22:17;97389.13;;;9.79;100.00
17054;BME280;8643;48.824;11.422;2023-05-19T05:24:47;97385.44;;;9.75;100.00
17054;BME280;8643;48.824;11.422;2023-05-19T05:27:16;97374.22;;;9.94;100.00
17054;BME280;8643;48.824;11.422;2023-05-19T05:29:45;97378.44;;;10.00;100.00
17054;BME280;8643;48.824;11.422;2023-05-19T05:32:14;97380.53;;;10.12;100.00
17054;BME280;8643;48.824;11.422;2023-05-19T05:34:44;97383.31;;;10.29;100.00
17054;BME280;8643;48.824;11.422;2023-05-19T05:37:14;97386.84;;;10.21;100.00
17054;BME280;8643;48.824;11.422;2023-05-19T05:39:43;97382.22;;;10.30;100.00
17054;BME280;8643;48.824;11.422;2023-05-19T05:42:11;97383.69;;;10.36;100.00
17054;BME280;8643;48.824;11.422;2023-05-19T05:44:40;97387.41;;;10.40;100.00
17054;BME280;8643;48.824;11.422;2023-05-19T05:47:10;97389.69;;;10.64;100.00
17054;BME280;8643;48.824;11.422;2023-05-19T05:49:39;97387.59;;;10.61;100.00
17054;BME280;8643;48.824;11.422;2023-05-19T05:52:12;97386.63;;;10.66;100.00
17054;BME280;8643;48.824;11.422;2023-05-19T05:54:46;97395.16;;;10.73;100.00
17054;BME280;8643;48.824;11.422;2023-05-19T05:57:18;97395.19;;;10.91;100.00
17054;BME280;8643;48.824;11.422;2023-05-19T05:59:47;97390.84;;;10.81;99.66
17054;BME280;8643;48.824;11.422;2023-05-19T06:02:17;97396.13;;;10.95;100.00
17054;BME280;8643;48.824;11.422;2023-05-19T06:04:45;97398.06;;;11.03;99.36
17054;BME280;8643;48.824;11.422;2023-05-19T06:07:15;97390.50;;;11.09;98.09
17054;BME280;8643;48.824;11.422;2023-05-19T06:09:44;97399.84;;;11.08;99.65
17054;BME280;8643;48.824;11.422;2023-05-19T06:12:14;97394.66;;;11.24;99.65
17054;BME280;8643;48.824;11.422;2023-05-19T06:14:47;97395.16;;;11.17;99.11
17054;BME280;8643;48.824;11.422;2023-05-19T06:17:39;97387.03;;;11.55;98.96
17054;BME280;8643;48.824;11.422;2023-05-19T06:20:08;97384.91;;;11.61;97.23
17054;BME280;8643;48.824;11.422;2023-05-19T06:22:38;97378.53;;;11.78;97.31
17054;BME280;8643;48.824;11.422;2023-05-19T06:25:08;97373.47;;;12.06;96.46
17054;BME280;8643;48.824;11.422;2023-05-19T06:27:37;97380.25;;;12.60;96.28
17054;BME280;8643;48.824;11.422;2023-05-19T06:30:07;97385.38;;;12.40;95.14
17054;BME280;8643;48.824;11.422;2023-05-19T06:32:56;97384.56;;;12.40;93.39
17054;BME280;8643;48.824;11.422;2023-05-19T06:35:26;97385.06;;;12.42;92.67
17054;BME280;8643;48.824;11.422;2023-05-19T06:37:56;97378.75;;;12.62;92.60
17054;BME280;8643;48.824;11.422;2023-05-19T06:40:25;97382.66;;;12.61;90.11
17054;BME280;8643;48.824;11.422;2023-05-19T06:42:54;97382.25;;;12.93;92.97
17054;BME280;8643;48.824;11.422;2023-05-19T06:45:41;97380.44;;;13.30;91.63
17054;BME280;8643;48.824;11.422;2023-05-19T06:48:11;97383.78;;;13.82;91.34
17054;BME280;8643;48.824;11.422;2023-05-19T06:50:40;97387.84;;;13.97;88.30
17054;BME280;8643;48.824;11.422;2023-05-19T06:53:10;97389.78;;;13.96;86.04
17054;BME280;8643;48.824;11.422;2023-05-19T06:55:39;97386.66;;;14.47;88.89
17054;BME280;8643;48.824;11.422;2023-05-19T06:58:26;97394.38;;;14.54;81.18
17054;BME280;8643;48.824;11.422;2023-05-19T07:00:56;97399.28;;;14.36;80.12
17054;BME280;8643;48.824;11.422;2023-05-19T07:03:29;97400.44;;;14.22;82.42
17054;BME280;8643;48.824;11.422;2023-05-19T07:05:58;97397.56;;;14.56;87.84
17054;BME280;8643;48.824;11.422;2023-05-19T07:08:29;97397.72;;;14.35;83.49
17054;BME280;8643;48.824;11.422;2023-05-19T07:11:01;97397.09;;;13.80;80.93
17054;BME280;8643;48.824;11.422;2023-05-19T07:13:30;97388.88;;;14.17;86.93
17054;BME280;8643;48.824;11.422;2023-05-19T07:15:59;97395.50;;;13.91;85.51
17054;BME280;8643;48.824;11.422;2023-05-19T07:18:28;97395.75;;;13.86;86.09
17054;BME280;8643;48.824;11.422;2023-05-19T07:20:58;97388.50;;;13.35;83.67
17054;BME280;8643;48.824;11.422;2023-05-19T07:23:26;97391.66;;;13.59;84.24
17054;BME280;8643;48.824;11.422;2023-05-19T07:25:56;97393.78;;;13.74;85.87
17054;BME280;8643;48.824;11.422;2023-05-19T07:28:25;97387.47;;;13.86;86.78
17054;BME280;8643;48.824;11.422;2023-05-19T07:30:53;97385.97;;;13.88;83.52
17054;BME280;8643;48.824;11.422;2023-05-19T07:33:22;97384.97;;;14.05;81.08
17054;BME280;8643;48.824;11.422;2023-05-19T07:35:52;97389.34;;;14.31;84.53
17054;BME280;8643;48.824;11.422;2023-05-19T07:38:21;97374.06;;;14.46;80.05
17054;BME280;8643;48.824;11.422;2023-05-19T07:40:50;97376.97;;;14.90;80.04
17054;BME280;8643;48.824;11.422;2023-05-19T07:43:19;97378.13;;;15.17;79.17
17054;BME280;8643;48.824;11.422;2023-05-19T07:45:48;97372.06;;;15.40;77.00
17054;BME280;8643;48.824;11.422;2023-05-19T07:48:16;97364.72;;;15.32;75.32
17054;BME280;8643;48.824;11.422;2023-05-19T07:50:45;97369.03;;;15.45;79.26
17054;BME280;8643;48.824;11.422;2023-05-19T07:53:14;97365.44;;;15.29;79.27
17054;BME280;8643;48.824;11.422;2023-05-19T07:55:43;97366.59;;;15.28;79.08
17054;BME280;8643;48.824;11.422;2023-05-19T07:58:11;97365.91;;;15.02;76.38
17054;BME280;8643;48.824;11.422;2023-05-19T08:00:41;97378.00;;;14.85;81.44
17054;BME280;8643;48.824;11.422;2023-05-19T08:03:12;97368.53;;;14.71;81.12
17054;BME280;8643;48.824;11.422;2023-05-19T08:05:44;97376.13;;;14.49;77.63
17054;BME280;8643;48.824;11.422;2023-05-19T08:08:13;97372.91;;;14.59;80.36
17054;BME280;8643;48.824;11.422;2023-05-19T08:10:43;97371.19;;;14.95;81.55
17054;BME280;8643;48.824;11.422;2023-05-19T08:13:12;97383.88;;;15.12;80.61
17054;BME280;8643;48.824;11.422;2023-05-19T08:15:42;97382.81;;;14.89;80.85
17054;BME280;8643;48.824;11.422;2023-05-19T08:18:10;97385.91;;;15.28;80.42
17054;BME280;8643;48.824;11.422;2023-05-19T08:20:39;97387.00;;;15.39;74.67
17054;BME280;8643;48.824;11.422;2023-05-19T08:23:08;97386.16;;;15.23;77.90
17054;BME280;8643;48.824;11.422;2023-05-19T08:25:37;97390.16;;;15.25;79.13
17054;BME280;8643;48.824;11.422;2023-05-19T08:28:05;97381.88;;;14.97;74.72
17054;BME280;8643;48.824;11.422;2023-05-19T08:30:34;97373.84;;;14.63;76.13
17054;BME280;8643;48.824;11.422;2023-05-19T08:33:05;97375.31;;;14.36;80.31
17054;BME280;8643;48.824;11.422;2023-05-19T08:35:34;97382.09;;;13.77;77.51
17054;BME280;8643;48.824;11.422;2023-05-19T08:38:04;97375.34;;;13.41;86.17
17054;BME280;8643;48.824;11.422;2023-05-19T08:40:33;97377.91;;;13.59;81.63
17054;BME280;8643;48.824;11.422;2023-05-19T08:43:04;97373.19;;;13.47;82.67
17054;BME280;8643;48.824;11.422;2023-05-19T08:45:33;97367.56;;;13.43;83.89
17054;BME280;8643;48.824;11.422;2023-05-19T08:48:02;97365.50;;;13.40;83.02
17054;BME280;8643;48.824;11.422;2023-05-19T08:50:38;97367.59;;;13.55;85.34
17054;BME280;8643;48.824;11.422;2023-05-19T08:53:16;97369.09;;;13.65;84.40
17054;BME280;8643;48.824;11.422;2023-05-19T08:56:04;97361.09;;;13.85;79.55
17054;BME280;8643;48.824;11.422;2023-05-19T08:58:38;97359.69;;;13.79;78.25
17054;BME280;8643;48.824;11.422;2023-05-19T09:01:07;97361.91;;;14.35;81.16
17054;BME280;8643;48.824;11.422;2023-05-19T09:03:37;97365.44;;;14.47;76.86
17054;BME280;8643;48.824;11.422;2023-05-19T09:06:07;97362.09;;;14.54;81.46
17054;BME280;8643;48.824;11.422;2023-05-19T09:08:36;97354.53;;;14.63;80.27
17054;BME280;8643;48.824;11.422;2023-05-19T09:11:04;97353.47;;;14.68;81.44
17054;BME280;8643;48.824;11.422;2023-05-19T09:13:33;97346.81;;;14.57;75.28
17054;BME280;8643;48.824;11.422;2023-05-19T09:16:02;97344.88;;;14.57;80.69
17054;BME280;8643;48.824;11.422;2023-05-19T09:18:31;97355.00;;;14.94;78.46
17054;BME280;8643;48.824;11.422;2023-05-19T09:21:00;97356.63;;;14.95;76.41
17054;BME280;8643;48.824;11.422;2023-05-19T09:23:32;97348.16;;;15.16;76.64
17054;BME280;8643;48.824;11.422;2023-05-19T09:26:02;97340.25;;;14.74;78.29
17054;BME280;8643;48.824;11.422;2023-05-19T09:28:35;97349.03;;;14.63;78.01
17054;BME280;8643;48.824;11.422;2023-05-19T09:31:05;97349.25;;;14.99;79.29
17054;BME280;8643;48.824;11.422;2023-05-19T09:33:36;97354.72;;;15.11;75.39
17054;BME280;8643;48.824;11.422;2023-05-19T09:36:05;97348.50;;;15.14;74.21
17054;BME280;8643;48.824;11.422;2023-05-19T09:38:39;97351.81;;;14.79;73.67
17054;BME280;8643;48.824;11.422;2023-05-19T09:41:08;97345.16;;;15.37;77.17
17054;BME280;8643;48.824;11.422;2023-05-19T09:43:36;97343.63;;;15.84;72.51
17054;BME280;8643;48.824;11.422;2023-05-19T09:46:06;97341.97;;;16.30;70.52
17054;BME280;8643;48.824;11.422;2023-05-19T09:48:37;97343.63;;;16.51;74.61
17054;BME280;8643;48.824;11.422;2023-05-19T09:51:07;97338.78;;;16.28;71.73
17054;BME280;8643;48.824;11.422;2023-05-19T09:53:39;97342.97;;;16.06;73.72
17054;BME280;8643;48.824;11.422;2023-05-19T09:56:09;97330.25;;;16.73;73.23
17054;BME280;8643;48.824;11.422;2023-05-19T09:58:41;97328.25;;;16.89;68.42
17054;BME280;8643;48.824;11.422;2023-05-19T10:01:10;97329.13;;;17.13;69.73
17054;BME280;8643;48.824;11.422;2023-05-19T10:03:40;97332.34;;;16.95;66.17
17054;BME280;8643;48.824;11.422;2023-05-19T10:06:09;97320.84;;;17.13;66.86
17054;BME280;8643;48.824;11.422;2023-05-19T10:08:40;97322.84;;;17.16;65.23
17054;BME280;8643;48.824;11.422;2023-05-19T10:11:10;97326.94;;;16.47;66.56
17054;BME280;8643;48.824;11.422;2023-05-19T10:13:39;97319.63;;;16.55;67.83
17054;BME280;8643;48.824;11.422;2023-05-19T10:16:09;97308.63;;;17.37;66.70
17054;BME280;8643;48.824;11.422;2023-05-19T10:18:39;97315.22;;;17.75;65.64
17054;BME280;8643;48.824;11.422;2023-05-19T10:21:09;97314.41;;;17.74;62.98
17054;BME280;8643;48.824;11.422;2023-05-19T10:23:39;97308.34;;;17.65;65.07
17054;BME280;8643;48.824;11.422;2023-05-19T10:26:09;97306.53;;;16.72;67.71
17054;BME280;8643;48.824;11.422;2023-05-19T10:28:41;97303.03;;;16.55;71.61
17054;BME280;8643;48.824;11.422;2023-05-19T10:31:15;97302.66;;;16.57;71.78
17054;BME280;8643;48.824;11.422;2023-05-19T10:34:13;97293.78;;;16.67;70.37
17054;BME280;8643;48.824;11.422;2023-05-19T10:36:52;97295.22;;;16.22;71.52
17054;BME280;8643;48.824;11.422;2023-05-19T10:39:31;97296.72;;;16.19;72.11
17054;BME280;8643;48.824;11.422;2023-05-19T10:42:14;97292.88;;;16.24;71.00
17054;BME280;8643;48.824;11.422;2023-05-19T10:44:59;97301.00;;;16.52;71.79
17054;BME280;8643;48.824;11.422;2023-05-19T10:47:30;97286.34;;;16.87;74.62
17054;BME280;8643;48.824;11.422;2023-05-19T10:50:00;97292.03;;;17.17;70.94
17054;BME280;8643;48.824;11.422;2023-05-19T10:52:29;97289.44;;;17.48;71.75
17054;BME280;8643;48.824;11.422;2023-05-19T10:55:00;97295.66;;;17.41;66.96
17054;BME280;8643;48.824;11.422;2023-05-19T10:57:29;97292.47;;;17.62;67.95
17054;BME280;8643;48.824;11.422;2023-05-19T11:00:02;97287.69;;;17.86;69.52
17054;BME280;8643;48.824;11.422;2023-05-19T11:02:39;97293.69;;;18.41;64.67
17054;BME280;8643;48.824;11.422;2023-05-19T11:05:10;97293.34;;;19.45;60.05
17054;BME280;8643;48.824;11.422;2023-05-19T11:07:41;97295.03;;;19.98;61.49
17054;BME280;8643;48.824;11.422;2023-05-19T11:10:12;97294.31;;;20.67;52.46
17054;BME280;8643;48.824;11.422;2023-05-19T11:12:43;97287.31;;;21.09;53.85
17054;BME280;8643;48.824;11.422;2023-05-19T11:15:14;97277.09;;;21.92;56.51
17054;BME280;8643;48.824;11.422;2023-05-19T11:17:47;97284.16;;;22.69;52.66
17054;BME280;8643;48.824;11.422;2023-05-19T11:20:23;97289.03;;;22.18;50.13
17054;BME280;8643;48.824;11.422;2023-05-19T11:23:06;97284.13;;;21.11;51.29
17054;BME280;8643;48.824;11.422;2023-05-19T11:25:44;97281.91;;;20.57;57.10
17054;BME280;8643;48.824;11.422;2023-05-19T11:28:16;97275.97;;;20.62;53.82
17054;BME280;8643;48.824;11.422;2023-05-19T11:30:47;97267.38;;;20.96;57.22
17054;BME280;8643;48.824;11.422;2023-05-19T11:33:19;97274.00;;;20.00;53.57
17054;BME280;8643;48.824;11.422;2023-05-19T11:35:49;97271.63;;;20.02;57.17
17054;BME280;8643;48.824;11.422;2023-05-19T11:38:19;97257.09;;;21.18;51.52
17054;BME280;8643;48.824;11.422;2023-05-19T11:40:52;97257.03;;;21.00;59.22
17054;BME280;8643;48.824;11.422;2023-05-19T11:43:22;97264.38;;;20.53;54.25
17054;BME280;8643;48.824;11.422;2023-05-19T11:45:52;97266.03;;;19.50;55.32
17054;BME280;8643;48.824;11.422;2023-05-19T11:48:22;97259.16;;;18.65;58.06
17054;BME280;8643;48.824;11.422;2023-05-19T11:50:52;97266.72;;;18.99;59.68
17054;BME280;8643;48.824;11.422;2023-05-19T11:53:22;97259.78;;;17.94;60.87
17054;BME280;8643;48.824;11.422;2023-05-19T11:55:52;97261.25;;;17.88;61.62
17054;BME280;8643;48.824;11.422;2023-05-19T11:58:25;97263.81;;;18.01;62.18
17054;BME280;8643;48.824;11.422;2023-05-19T12:00:54;97258.91;;;17.67;61.33
17054;BME280;8643;48.824;11.422;2023-05-19T12:03:23;97257.75;;;17.68;65.20
17054;BME280;8643;48.824;11.422;2023-05-19T12:05:54;97249.81;;;17.44;61.14
17054;BME280;8643;48.824;11.422;2023-05-19T12:08:24;97251.69;;;17.86;62.65
17054;BME280;8643;48.824;11.422;2023-05-19T12:10:55;97247.56;;;17.76;61.60
17054;BME280;8643;48.824;11.422;2023-05-19T12:13:24;97249.00;;;18.16;62.40
17054;BME280;8643;48.824;11.422;2023-05-19T12:15:56;97250.78;;;18.31;61.87
17054;BME280;8643;48.824;11.422;2023-05-19T12:18:28;97237.06;;;18.73;61.16
17054;BME280;8643;48.824;11.422;2023-05-19T12:20:58;97237.28;;;19.28;61.79
17054;BME280;8643;48.824;11.422;2023-05-19T12:23:28;97226.63;;;19.37;60.14
17054;BME280;8643;48.824;11.422;2023-05-19T12:25:59;97236.13;;;19.33;59.70
17054;BME280;8643;48.824;11.422;2023-05-19T12:28:29;97226.97;;;20.43;53.09
17054;BME280;8643;48.824;11.422;2023-05-19T12:30:58;97234.06;;;21.36;52.59
17054;BME280;8643;48.824;11.422;2023-05-19T12:33:29;97236.81;;;23.29;47.35
17054;BME280;8643;48.824;11.422;2023-05-19T12:36:01;97234.44;;;23.83;48.14
17054;BME280;8643;48.824;11.422;2023-05-19T12:38:30;97239.88;;;23.45;48.86
17054;BME280;8643;48.824;11.422;2023-05-19T12:41:00;97233.09;;;23.98;46.92
17054;BME280;8643;48.824;11.422;2023-05-19T12:43:28;97229.75;;;23.10;46.82
17054;BME280;8643;48.824;11.422;2023-05-19T12:45:57;97231.34;;;23.11;52.88
17054;BME280;8643;48.824;11.422;2023-05-19T12:48:26;97216.53;;;24.19;46.01
17054;BME280;8643;48.824;11.422;2023-05-19T12:50:55;97216.53;;;23.73;45.86
17054;BME280;8643;48.824;11.422;2023-05-19T12:53:25;97221.78;;;23.64;48.98
17054;BME280;8643;48.824;11.422;2023-05-19T12:55:55;97214.53;;;23.21;48.35
17054;BME280;8643;48.824;11.422;2023-05-19T12:58:24;97222.13;;;23.21;48.25
17054;BME280;8643;48.824;11.422;2023-05-19T13:00:59;97219.13;;;23.46;49.81
17054;BME280;8643;48.824;11.422;2023-05-19T13:03:28;97219.47;;;23.55;46.90
17054;BME280;8643;48.824;11.422;2023-05-19T13:05:57;97217.78;;;24.14;45.76
17054;BME280;8643;48.824;11.422;2023-05-19T13:08:26;97220.50;;;23.20;50.64
17054;BME280;8643;48.824;11.422;2023-05-19T13:10:56;97217.88;;;22.87;52.02
17054;BME280;8643;48.824;11.422;2023-05-19T13:13:25;97218.44;;;23.84;47.59
17054;BME280;8643;48.824;11.422;2023-05-19T13:15:54;97213.00;;;23.66;44.57
17054;BME280;8643;48.824;11.422;2023-05-19T13:18:23;97203.56;;;23.94;44.12
17054;BME280;8643;48.824;11.422;2023-05-19T13:20:53;97205.00;;;24.82;46.77